Time;durP1;ratioP1;P1;durP2;ratioP2;P2;SDS_P1;SDS_P2;PMS_P1;PMS_P2;Temp;Humidity;BMP_temperature;BMP_pressure;BME280_temperature;BME280_humidity;BME280_pressure;Samples;Min_cycle;Max_cycle;Signal;HPM_P1;HPM_P2
2022/06/15 00:01:17;;;;;;;12.68;7.00;;;13.40;99.90;;;;;;5087641;28;20039;-69
2022/06/15 00:03:43;;;;;;;14.02;8.02;;;13.30;99.90;;;;;;5086676;28;20416;-68
2022/06/15 00:06:11;;;;;;;13.82;7.13;;;13.30;99.90;;;;;;5087316;28;20020;-69
2022/06/15 00:08:39;;;;;;;14.88;7.82;;;13.30;99.90;;;;;;5087459;28;20031;-69
2022/06/15 00:11:10;;;;;;;14.65;6.93;;;13.30;99.90;;;;;;5085298;28;20476;-69
2022/06/15 00:13:36;;;;;;;13.25;6.75;;;13.40;99.90;;;;;;5072252;28;20161;-69
2022/06/15 00:16:04;;;;;;;11.30;6.88;;;13.40;99.90;;;;;;5082791;28;20134;-69
2022/06/15 00:18:31;;;;;;;11.95;7.28;;;13.50;99.90;;;;;;5084191;28;20046;-69
2022/06/15 00:20:58;;;;;;;15.15;7.53;;;13.50;99.90;;;;;;5090915;28;20044;-69
2022/06/15 00:23:25;;;;;;;14.05;7.43;;;13.40;99.90;;;;;;5081720;28;20039;-69
2022/06/15 00:25:52;;;;;;;14.40;7.95;;;13.40;99.90;;;;;;5089866;28;20369;-69
2022/06/15 00:28:18;;;;;;;12.20;6.93;;;13.40;99.90;;;;;;5091110;28;20048;-68
2022/06/15 00:30:45;;;;;;;12.82;7.32;;;13.40;99.90;;;;;;5088863;28;20040;-69
2022/06/15 00:33:12;;;;;;;10.30;6.85;;;13.40;99.90;;;;;;5074210;28;20036;-69
2022/06/15 00:35:38;;;;;;;10.70;6.70;;;13.60;99.90;;;;;;5085636;28;20108;-69
2022/06/15 00:38:05;;;;;;;13.52;7.13;;;13.70;99.90;;;;;;5082141;28;20032;-69
2022/06/15 00:40:30;;;;;;;11.80;6.65;;;13.80;99.90;;;;;;5072176;28;20461;-69
2022/06/15 00:42:56;;;;;;;12.65;6.90;;;13.70;99.90;;;;;;5091572;28;20030;-69
2022/06/15 00:45:22;;;;;;;12.73;4.93;;;13.70;99.90;;;;;;5088023;28;20028;-69
2022/06/15 00:47:47;;;;;;;13.82;6.40;;;13.90;99.90;;;;;;5090880;28;20082;-69
2022/06/15 00:50:20;;;;;;;11.95;6.80;;;14.20;99.90;;;;;;5083888;28;20122;-69
2022/06/15 00:52:49;;;;;;;9.70;5.57;;;14.40;99.90;;;;;;5089489;28;20043;-69
2022/06/15 00:55:30;;;;;;;11.70;5.20;;;14.30;99.90;;;;;;5079552;28;20036;-69
2022/06/15 00:57:57;;;;;;;8.90;5.10;;;14.60;99.90;;;;;;5080071;28;20043;-69
2022/06/15 01:00:24;;;;;;;12.25;4.95;;;14.90;99.90;;;;;;5090474;28;20118;-69
2022/06/15 01:02:49;;;;;;;10.43;5.35;;;15.10;99.90;;;;;;5084700;28;20103;-69
2022/06/15 01:05:47;;;;;;;13.57;5.85;;;15.20;99.90;;;;;;5091725;28;20587;-69
2022/06/15 01:08:13;;;;;;;15.38;5.53;;;15.30;99.90;;;;;;5087221;28;20092;-69
2022/06/15 01:10:47;;;;;;;12.93;5.78;;;15.30;99.90;;;;;;5087448;28;20036;-69
2022/06/15 01:13:25;;;;;;;12.00;5.70;;;15.30;99.90;;;;;;5078765;28;20032;-69
2022/06/15 01:15:56;;;;;;;9.63;5.15;;;15.20;99.90;;;;;;5082847;28;20039;-69
2022/06/15 01:18:50;;;;;;;8.55;4.75;;;15.20;99.90;;;;;;5072770;28;20028;-69
2022/06/15 01:21:27;;;;;;;12.80;6.20;;;15.40;99.90;;;;;;5073443;28;20024;-69
2022/06/15 01:24:03;;;;;;;12.60;6.55;;;15.40;99.90;;;;;;5085392;28;20028;-69
2022/06/15 01:26:51;;;;;;;10.95;5.72;;;15.00;99.90;;;;;;5074964;28;20063;-69
2022/06/15 01:29:23;;;;;;;11.57;5.70;;;14.90;99.90;;;;;;5084218;28;20492;-69
2022/06/15 01:32:16;;;;;;;10.25;6.20;;;14.90;99.90;;;;;;5074624;28;20516;-68
2022/06/15 01:35:03;;;;;;;11.45;6.30;;;14.80;99.90;;;;;;5079054;28;20056;-69
2022/06/15 01:37:32;;;;;;;13.48;6.32;;;14.50;99.90;;;;;;5069340;28;20060;-69
2022/06/15 01:40:21;;;;;;;11.65;6.10;;;14.40;99.90;;;;;;5079286;28;20058;-69
2022/06/15 01:43:01;;;;;;;13.75;6.78;;;14.40;99.90;;;;;;5082325;28;20028;-69
2022/06/15 01:45:32;;;;;;;11.20;6.27;;;14.40;99.90;;;;;;5086765;28;20032;-69
2022/06/15 01:48:00;;;;;;;11.32;6.05;;;14.20;99.90;;;;;;5069078;28;20032;-69
2022/06/15 01:50:32;;;;;;;14.15;5.35;;;14.20;99.90;;;;;;5070122;28;20144;-69
2022/06/15 01:53:09;;;;;;;12.40;6.13;;;14.40;99.90;;;;;;5069773;28;20024;-69
2022/06/15 01:55:41;;;;;;;11.65;5.63;;;14.70;99.90;;;;;;5077945;28;20025;-70
2022/06/15 01:58:09;;;;;;;9.95;5.45;;;15.00;99.90;;;;;;5078939;28;20162;-70
2022/06/15 02:00:35;;;;;;;8.88;5.25;;;15.30;99.90;;;;;;5087361;28;20040;-69
2022/06/15 02:03:12;;;;;;;9.65;5.22;;;15.40;99.90;;;;;;5088572;28;20152;-69
2022/06/15 02:05:59;;;;;;;9.63;4.72;;;15.50;99.90;;;;;;5082925;28;20051;-69
2022/06/15 02:08:38;;;;;;;10.68;5.43;;;15.60;99.90;;;;;;5078885;28;20020;-69
2022/06/15 02:11:12;;;;;;;11.73;5.97;;;15.60;99.90;;;;;;5070431;28;20123;-69
2022/06/15 02:13:42;;;;;;;12.35;6.30;;;15.60;99.90;;;;;;5089872;28;20027;-69
2022/06/15 02:16:13;;;;;;;12.85;6.05;;;15.00;99.90;;;;;;5090175;28;20115;-69
2022/06/15 02:18:42;;;;;;;10.50;5.50;;;14.70;99.90;;;;;;5088999;28;20384;-69
2022/06/15 02:21:12;;;;;;;10.02;5.15;;;14.60;99.90;;;;;;5087597;28;20036;-70
2022/06/15 02:23:40;;;;;;;8.40;5.22;;;14.90;99.90;;;;;;5082411;28;20452;-69
2022/06/15 02:26:06;;;;;;;8.40;4.57;;;15.20;99.90;;;;;;5083865;28;20055;-70
2022/06/15 02:28:37;;;;;;;10.95;5.00;;;15.50;99.90;;;;;;5081452;28;20044;-69
2022/06/15 02:31:03;;;;;;;10.57;4.63;;;15.70;99.90;;;;;;5082856;28;20441;-69
2022/06/15 02:33:36;;;;;;;11.60;4.90;;;15.80;99.90;;;;;;5086560;28;20085;-69
2022/06/15 02:36:02;;;;;;;13.25;5.43;;;15.90;99.90;;;;;;5082326;28;20437;-70
2022/06/15 02:38:30;;;;;;;7.90;5.03;;;15.90;99.90;;;;;;5088998;28;20543;-69
2022/06/15 02:40:56;;;;;;;8.77;5.00;;;15.90;99.90;;;;;;5083193;28;20067;-70
2022/06/15 02:43:26;;;;;;;10.60;5.53;;;15.80;99.90;;;;;;5089177;28;20042;-69
2022/06/15 02:45:55;;;;;;;11.13;5.47;;;15.80;99.90;;;;;;5087528;28;20066;-70
2022/06/15 02:48:22;;;;;;;107.90;6.85;;;15.50;99.90;;;;;;5090746;28;20053;-69
2022/06/15 02:50:51;;;;;;;11.85;5.65;;;15.60;99.90;;;;;;5069557;28;20048;-69
2022/06/15 02:53:21;;;;;;;105.60;9.18;;;15.70;99.90;;;;;;5073607;28;20074;-69
2022/06/15 02:55:49;;;;;;;12.18;5.75;;;15.90;99.90;;;;;;5080824;28;20028;-69
2022/06/15 02:58:20;;;;;;;10.50;5.38;;;16.00;99.90;;;;;;5083994;28;20623;-69
2022/06/15 03:00:46;;;;;;;12.40;5.03;;;16.00;99.90;;;;;;5083202;28;20036;-69
2022/06/15 03:03:11;;;;;;;12.57;4.80;;;16.10;99.90;;;;;;5070118;28;20032;-70
2022/06/15 03:05:37;;;;;;;9.35;5.05;;;16.20;99.90;;;;;;5089260;28;20058;-69
2022/06/15 03:08:03;;;;;;;12.25;5.38;;;16.10;99.90;;;;;;5080129;28;20430;-69
2022/06/15 03:10:29;;;;;;;12.90;5.55;;;16.20;99.90;;;;;;5082989;28;20555;-69
2022/06/15 03:12:54;;;;;;;11.85;5.47;;;16.20;99.90;;;;;;5077594;28;20113;-71
2022/06/15 03:15:20;;;;;;;10.05;5.47;;;16.30;99.90;;;;;;5067603;28;20546;-70
2022/06/15 03:17:46;;;;;;;12.73;5.32;;;16.40;99.90;;;;;;5066069;28;20032;-70
2022/06/15 03:20:12;;;;;;;8.18;4.82;;;16.40;99.90;;;;;;5087483;28;20043;-70
2022/06/15 03:22:38;;;;;;;11.23;5.22;;;16.40;99.90;;;;;;5090956;28;20028;-69
2022/06/15 03:25:04;;;;;;;12.55;5.43;;;16.40;99.90;;;;;;5087449;28;20129;-69
2022/06/15 03:27:30;;;;;;;11.55;6.30;;;16.40;99.90;;;;;;5090889;28;20052;-69
2022/06/15 03:29:56;;;;;;;11.90;5.63;;;16.30;99.90;;;;;;5079044;28;20079;-69
2022/06/15 03:32:22;;;;;;;10.35;5.60;;;16.30;99.90;;;;;;5078073;28;20027;-70
2022/06/15 03:34:47;;;;;;;13.07;5.50;;;16.30;99.90;;;;;;5077989;28;20039;-69
2022/06/15 03:37:13;;;;;;;9.90;5.45;;;16.20;99.90;;;;;;5084409;28;20088;-70
2022/06/15 03:39:39;;;;;;;13.95;6.10;;;16.10;99.90;;;;;;5082938;28;20459;-70
2022/06/15 03:42:16;;;;;;;9.90;5.40;;;15.80;99.90;;;;;;5087600;28;20623;-69
2022/06/15 03:44:42;;;;;;;10.25;5.57;;;15.90;99.90;;;;;;5086375;28;20093;-70
2022/06/15 03:47:13;;;;;;;8.35;5.75;;;16.00;99.90;;;;;;5082709;28;20476;-70
2022/06/15 03:49:38;;;;;;;11.85;5.80;;;16.10;99.90;;;;;;5077073;28;20016;-70
2022/06/15 03:52:05;;;;;;;11.23;5.45;;;15.90;99.90;;;;;;5078376;28;20055;-69
2022/06/15 03:54:31;;;;;;;12.02;6.07;;;15.90;99.90;;;;;;5085029;28;20052;-69
2022/06/15 03:56:57;;;;;;;11.02;6.35;;;15.20;99.90;;;;;;5091354;28;20082;-72
2022/06/15 03:59:22;;;;;;;11.75;6.28;;;14.90;99.90;;;;;;5087485;28;20040;-68
2022/06/15 04:01:48;;;;;;;10.38;6.07;;;14.70;99.90;;;;;;5087521;28;20032;-68
2022/06/15 04:04:14;;;;;;;11.07;6.30;;;14.60;99.90;;;;;;5082969;28;20363;-68
2022/06/15 04:06:41;;;;;;;11.55;6.30;;;14.30;99.90;;;;;;5087500;28;20484;-68
2022/06/15 04:09:06;;;;;;;14.60;6.38;;;14.10;99.90;;;;;;5075425;28;20024;-68
2022/06/15 04:14:16;;;;;;;12.57;6.60;;;14.40;99.90;;;;;;5075711;28;20039;-67
2022/06/15 04:16:42;;;;;;;11.73;5.63;;;14.30;99.90;;;;;;5088342;28;20032;-69
2022/06/15 04:19:08;;;;;;;10.45;6.10;;;14.50;99.90;;;;;;5085670;28;20032;-68
2022/06/15 04:21:34;;;;;;;10.98;5.63;;;14.90;99.90;;;;;;5088661;28;20090;-68
2022/06/15 04:24:00;;;;;;;10.07;5.88;;;15.20;99.90;;;;;;5092554;28;20377;-72
2022/06/15 04:26:26;;;;;;;10.02;5.80;;;15.50;99.90;;;;;;5082997;28;20036;-70
2022/06/15 04:28:52;;;;;;;9.40;5.50;;;15.70;99.90;;;;;;5083486;28;20472;-68
2022/06/15 04:31:17;;;;;;;14.27;6.00;;;15.90;99.90;;;;;;5085380;28;20540;-68
2022/06/15 04:33:43;;;;;;;10.52;5.65;;;16.00;99.90;;;;;;5089758;28;20472;-67
2022/06/15 04:36:13;;;;;;;11.40;5.90;;;16.20;99.90;;;;;;5082439;28;20024;-69
2022/06/15 04:38:39;;;;;;;10.50;5.80;;;16.40;99.90;;;;;;5075966;28;20069;-69
2022/06/15 04:41:04;;;;;;;9.50;5.50;;;16.50;99.90;;;;;;5091261;28;20768;-68
2022/06/15 04:43:30;;;;;;;10.18;5.22;;;16.60;99.90;;;;;;5077385;28;20032;-68
2022/06/15 04:45:56;;;;;;;9.40;5.43;;;16.80;99.90;;;;;;5076121;28;20028;-68
2022/06/15 04:48:22;;;;;;;10.07;5.50;;;17.00;99.90;;;;;;5077997;28;20036;-68
2022/06/15 04:50:48;;;;;;;11.57;5.45;;;17.20;99.90;;;;;;5079888;28;20123;-67
2022/06/15 04:53:13;;;;;;;10.95;5.47;;;17.40;99.90;;;;;;5070603;28;20024;-68
2022/06/15 04:55:39;;;;;;;14.65;5.60;;;17.50;99.90;;;;;;5090128;28;20051;-68
2022/06/15 04:58:05;;;;;;;13.98;5.05;;;17.70;99.90;;;;;;5086340;28;20538;-68
2022/06/15 05:00:39;;;;;;;9.18;4.97;;;17.90;99.90;;;;;;5077756;28;20032;-68
2022/06/15 05:03:06;;;;;;;8.60;4.93;;;18.00;99.90;;;;;;5070114;28;20031;-68
2022/06/15 05:05:32;;;;;;;9.77;4.88;;;18.10;99.90;;;;;;5075599;28;20044;-68
2022/06/15 05:07:58;;;;;;;10.48;5.15;;;18.10;99.90;;;;;;5081983;28;20024;-68
2022/06/15 05:10:25;;;;;;;9.55;4.93;;;18.20;99.90;;;;;;5081472;28;20036;-68
2022/06/15 05:12:53;;;;;;;8.52;5.03;;;18.30;99.90;;;;;;5078981;28;20028;-68
2022/06/15 05:15:19;;;;;;;9.35;4.60;;;18.50;99.90;;;;;;5082215;28;20032;-67
2022/06/15 05:17:46;;;;;;;14.13;4.90;;;18.70;99.90;;;;;;5080127;28;20472;-69
2022/06/15 05:20:14;;;;;;;8.63;5.00;;;18.90;99.90;;;;;;5088951;28;20078;-69
2022/06/15 05:22:40;;;;;;;9.10;5.18;;;19.00;99.90;;;;;;5081492;28;20031;-69
2022/06/15 05:25:07;;;;;;;9.55;5.45;;;19.10;99.90;;;;;;5078978;28;20028;-70
2022/06/15 05:27:35;;;;;;;10.40;5.10;;;19.10;99.90;;;;;;5082741;28;20053;-69
2022/06/15 05:30:01;;;;;;;12.18;4.97;;;19.10;99.90;;;;;;5074490;28;20782;-68
2022/06/15 05:32:27;;;;;;;11.43;4.88;;;19.10;99.90;;;;;;5085644;28;20036;-68
2022/06/15 05:34:55;;;;;;;12.82;5.60;;;19.00;99.90;;;;;;5082722;28;20119;-68
2022/06/15 05:37:21;;;;;;;10.18;4.95;;;19.00;99.90;;;;;;5087492;28;20039;-69
2022/06/15 05:39:48;;;;;;;8.68;4.90;;;19.10;99.90;;;;;;5088938;28;20357;-70
2022/06/15 05:42:13;;;;;;;7.43;4.80;;;19.30;99.90;;;;;;5081967;28;20028;-69
2022/06/15 05:47:06;;;;;;;11.35;5.30;;;19.70;99.90;;;;;;5089867;28;20682;-66
2022/06/15 05:49:34;;;;;;;11.77;5.43;;;19.90;99.90;;;;;;5088520;28;20024;-69
2022/06/15 05:52:01;;;;;;;9.82;5.10;;;20.00;99.90;;;;;;5073759;28;20046;-67
2022/06/15 05:54:27;;;;;;;9.65;4.60;;;20.10;99.90;;;;;;5085119;28;20052;-69
2022/06/15 05:56:52;;;;;;;10.73;4.85;;;20.20;99.90;;;;;;5082295;28;20060;-68
2022/06/15 05:59:18;;;;;;;16.88;5.35;;;20.40;99.90;;;;;;5083355;28;20443;-68
2022/06/15 06:01:44;;;;;;;10.50;5.07;;;20.50;99.90;;;;;;5078510;28;20024;-69
2022/06/15 06:04:15;;;;;;;12.32;4.70;;;20.50;99.90;;;;;;5082826;28;20405;-69
2022/06/15 06:06:41;;;;;;;12.45;5.10;;;20.60;99.90;;;;;;5076353;28;20036;-69
2022/06/15 06:09:06;;;;;;;8.73;4.93;;;20.60;99.90;;;;;;5085385;28;20366;-69
2022/06/15 06:11:32;;;;;;;8.35;4.72;;;20.70;99.90;;;;;;5079780;28;20048;-69
2022/06/15 06:13:58;;;;;;;10.15;5.30;;;20.90;99.90;;;;;;5077425;28;20042;-68
2022/06/15 06:16:24;;;;;;;8.00;5.40;;;21.00;99.90;;;;;;5087013;28;20457;-67
2022/06/15 06:18:51;;;;;;;7.80;4.97;;;21.10;99.90;;;;;;5088617;28;20747;-69
2022/06/15 06:21:18;;;;;;;11.68;5.00;;;21.10;99.90;;;;;;5085011;28;20032;-66
2022/06/15 06:23:44;;;;;;;8.68;4.90;;;21.40;99.90;;;;;;5087232;28;20028;-67
2022/06/15 06:26:23;;;;;;;9.55;5.00;;;21.60;99.90;;;;;;5092577;28;20035;-66
2022/06/15 06:28:49;;;;;;;7.40;4.43;;;21.70;99.90;;;;;;5089064;28;20055;-67
2022/06/15 06:31:16;;;;;;;6.28;4.32;;;21.80;99.90;;;;;;5088529;28;20037;-67
2022/06/15 06:33:42;;;;;;;8.40;4.53;;;21.80;99.90;;;;;;5083011;28;20131;-67
2022/06/15 06:36:16;;;;;;;7.63;4.57;;;21.90;99.90;;;;;;5078215;28;20516;-68
2022/06/15 06:38:42;;;;;;;8.70;4.47;;;22.10;99.90;;;;;;5071436;28;20094;-67
2022/06/15 06:41:10;;;;;;;8.15;4.25;;;22.30;99.90;;;;;;5069464;28;20389;-66
2022/06/15 06:43:35;;;;;;;7.90;4.53;;;22.40;98.90;;;;;;5084207;28;20035;-67
2022/06/15 06:46:01;;;;;;;7.82;4.28;;;22.50;98.30;;;;;;5088347;28;20020;-67
2022/06/15 06:48:26;;;;;;;9.13;3.92;;;22.60;96.70;;;;;;5084002;28;20427;-66
2022/06/15 06:50:52;;;;;;;9.50;4.25;;;22.80;96.90;;;;;;5070932;28;20138;-67
2022/06/15 06:53:18;;;;;;;7.18;4.20;;;22.90;97.90;;;;;;5070580;28;20430;-67
2022/06/15 06:55:44;;;;;;;9.32;4.22;;;22.90;94.90;;;;;;5078859;28;20031;-67
2022/06/15 06:58:10;;;;;;;8.73;4.20;;;23.00;94.60;;;;;;5077194;28;20031;-69
2022/06/15 07:00:36;;;;;;;9.02;4.28;;;23.00;94.30;;;;;;5083329;28;20039;-67
2022/06/15 07:03:04;;;;;;;10.32;4.35;;;23.00;94.90;;;;;;5088892;28;20108;-70
2022/06/15 07:05:32;;;;;;;8.60;4.00;;;23.10;93.90;;;;;;5083030;28;20058;-70
2022/06/15 07:07:57;;;;;;;8.18;3.80;;;23.20;92.50;;;;;;5089610;28;20028;-68
2022/06/15 07:10:25;;;;;;;6.22;3.67;;;23.40;92.20;;;;;;5085624;28;20384;-67
2022/06/15 07:12:51;;;;;;;4.85;3.53;;;23.50;91.50;;;;;;5070351;28;20047;-68
2022/06/15 07:15:17;;;;;;;7.63;3.85;;;23.70;91.70;;;;;;5082607;28;20383;-68
2022/06/15 07:17:43;;;;;;;9.50;3.80;;;24.00;92.80;;;;;;5078088;28;20043;-68
2022/06/15 07:20:10;;;;;;;6.40;3.75;;;24.00;89.20;;;;;;5072855;28;20023;-70
2022/06/15 07:22:36;;;;;;;7.47;3.95;;;24.00;89.50;;;;;;5087000;28;20038;-68
2022/06/15 07:25:04;;;;;;;6.43;3.92;;;24.00;88.90;;;;;;5082970;28;20033;-67
2022/06/15 07:27:32;;;;;;;9.02;3.47;;;24.20;89.50;;;;;;5065460;28;20048;-67
2022/06/15 07:29:59;;;;;;;7.57;3.72;;;24.30;89.20;;;;;;5072620;28;20521;-66
2022/06/15 07:32:25;;;;;;;10.23;3.90;;;24.40;84.80;;;;;;5089422;28;20759;-68
2022/06/15 07:34:51;;;;;;;7.15;3.45;;;24.50;85.00;;;;;;5072105;28;20060;-69
2022/06/15 07:37:17;;;;;;;6.70;3.60;;;24.60;82.80;;;;;;5080987;28;20485;-68
2022/06/15 07:39:43;;;;;;;8.57;3.72;;;24.60;82.10;;;;;;5067255;28;20020;-66
2022/06/15 07:42:09;;;;;;;7.10;3.35;;;24.70;80.70;;;;;;5079223;28;20067;-69
2022/06/15 07:44:36;;;;;;;7.85;3.63;;;24.80;78.70;;;;;;5085945;28;20028;-68
2022/06/15 07:49:55;;;;;;;8.50;4.15;;;24.70;77.80;;;;;;5071219;28;20494;-66
2022/06/15 07:52:38;;;;;;;7.80;3.90;;;24.90;79.00;;;;;;5068065;28;20036;-67
2022/06/15 07:55:06;;;;;;;7.22;3.67;;;25.20;82.30;;;;;;5078058;28;20032;-67
2022/06/15 07:57:32;;;;;;;8.80;3.70;;;25.20;76.20;;;;;;5084379;28;20065;-66
2022/06/15 07:59:58;;;;;;;9.27;3.67;;;25.40;74.70;;;;;;5089291;28;20048;-67
2022/06/15 08:02:24;;;;;;;7.30;3.72;;;25.50;77.30;;;;;;5087532;28;20086;-68
2022/06/15 08:04:49;;;;;;;7.10;3.75;;;25.60;75.50;;;;;;5087786;28;20056;-67
2022/06/15 08:07:16;;;;;;;7.00;3.88;;;25.60;72.90;;;;;;5088455;28;20577;-68
2022/06/15 08:09:43;;;;;;;6.22;3.63;;;25.80;75.80;;;;;;5090978;28;20023;-67
2022/06/15 08:12:14;;;;;;;5.18;3.60;;;26.00;74.30;;;;;;5075233;28;20032;-67
2022/06/15 08:14:47;;;;;;;7.47;3.83;;;26.00;69.50;;;;;;5081950;28;20047;-68
2022/06/15 08:17:20;;;;;;;4.80;3.28;;;26.10;69.20;;;;;;5089380;28;20129;-67
2022/06/15 08:20:02;;;;;;;6.50;3.40;;;26.10;73.10;;;;;;5088328;28;20062;-67
2022/06/15 08:22:28;;;;;;;4.38;3.40;;;26.20;71.70;;;;;;5090926;28;20599;-66
2022/06/15 08:24:54;;;;;;;6.85;3.35;;;26.30;73.40;;;;;;5088708;28;20118;-65
2022/06/15 08:27:22;;;;;;;7.90;3.83;;;26.30;70.00;;;;;;5090700;28;20043;-66
2022/06/15 08:29:49;;;;;;;4.57;3.25;;;26.40;69.10;;;;;;5091872;28;20021;-67
2022/06/15 08:32:16;;;;;;;5.00;3.20;;;26.30;69.20;;;;;;5090661;28;20067;-67
2022/06/15 08:34:42;;;;;;;10.43;4.20;;;26.50;67.70;;;;;;5089430;28;20039;-67
2022/06/15 08:37:13;;;;;;;6.72;3.42;;;26.50;67.00;;;;;;5089553;28;20055;-65
2022/06/15 08:39:39;;;;;;;6.30;3.28;;;26.50;70.20;;;;;;5082468;28;20092;-67
2022/06/15 08:42:29;;;;;;;6.13;3.70;;;26.50;67.00;;;;;;5089027;28;20031;-66
2022/06/15 08:45:17;;;;;;;111.90;6.32;;;26.50;66.20;;;;;;5091150;28;20089;-66
2022/06/15 08:47:42;;;;;;;9.27;3.08;;;26.70;65.10;;;;;;5083962;28;20054;-65
2022/06/15 08:50:13;;;;;;;6.63;3.42;;;26.80;69.40;;;;;;5082842;28;20389;-66
2022/06/15 08:52:45;;;;;;;12.32;3.08;;;26.90;66.10;;;;;;5069668;28;20024;-66
2022/06/15 08:55:14;;;;;;;80.13;8.73;;;27.00;66.50;;;;;;5083793;28;20078;-66
2022/06/15 08:57:49;;;;;;;12.90;2.70;;;27.20;66.20;;;;;;5090022;28;20020;-66
2022/06/15 09:00:24;;;;;;;175.43;9.48;;;27.50;65.30;;;;;;5082486;28;20036;-66
2022/06/15 09:03:23;;;;;;;5.32;3.13;;;27.60;66.60;;;;;;5083777;28;20326;-66
2022/06/15 09:06:07;;;;;;;4.75;3.03;;;27.60;63.00;;;;;;5083334;28;20112;-66
2022/06/15 09:08:36;;;;;;;11.60;3.22;;;27.60;61.20;;;;;;5088820;28;20035;-67
2022/06/15 09:11:40;;;;;;;5.53;3.28;;;27.40;61.60;;;;;;5084656;28;20050;-66
2022/06/15 09:14:29;;;;;;;9.20;3.40;;;27.30;60.90;;;;;;5084817;28;20042;-66
2022/06/15 09:17:19;;;;;;;5.90;3.55;;;27.70;63.10;;;;;;5089061;28;20039;-66
2022/06/15 09:19:48;;;;;;;5.80;3.55;;;27.40;63.10;;;;;;5075612;28;20063;-68
2022/06/15 09:22:39;;;;;;;5.03;3.80;;;27.30;65.90;;;;;;5091453;28;20040;-67
2022/06/15 09:25:26;;;;;;;6.43;3.60;;;27.60;68.20;;;;;;5072476;28;20045;-67
2022/06/15 09:27:59;;;;;;;7.78;3.95;;;28.10;62.50;;;;;;5074800;28;20044;-67
2022/06/15 09:30:31;;;;;;;8.38;3.92;;;28.30;59.30;;;;;;5086910;28;20120;-66
2022/06/15 09:33:05;;;;;;;5.88;3.90;;;28.30;61.10;;;;;;5085863;28;20031;-67
2022/06/15 09:35:35;;;;;;;183.60;36.03;;;28.10;59.30;;;;;;5087958;28;20036;-66
2022/06/15 09:38:06;;;;;;;6.85;3.97;;;28.10;61.40;;;;;;5090420;28;20050;-67
2022/06/15 09:40:53;;;;;;;7.80;4.03;;;28.20;64.20;;;;;;5088556;28;20032;-67
2022/06/15 09:43:34;;;;;;;5.18;3.90;;;28.70;58.40;;;;;;5076938;28;20032;-68
2022/06/15 09:46:09;;;;;;;5.65;3.30;;;28.90;60.50;;;;;;5089189;28;20111;-65
2022/06/15 09:49:02;;;;;;;7.50;3.30;;;28.60;56.80;;;;;;5089030;28;20028;-66
2022/06/15 09:51:49;;;;;;;6.03;3.35;;;28.70;57.40;;;;;;5089920;28;20449;-66
2022/06/15 09:54:33;;;;;;;6.07;3.30;;;28.40;55.40;;;;;;5088313;28;20079;-67
2022/06/15 09:56:59;;;;;;;4.82;3.20;;;28.30;56.80;;;;;;5086525;28;20070;-67
2022/06/15 09:59:26;;;;;;;7.45;3.13;;;28.30;57.50;;;;;;5087830;28;20036;-67
2022/06/15 10:01:52;;;;;;;3.83;3.33;;;28.30;60.70;;;;;;5085026;28;20631;-68
2022/06/15 10:04:26;;;;;;;6.00;3.33;;;28.00;57.80;;;;;;5080313;28;20028;-67
2022/06/15 10:06:57;;;;;;;6.95;3.60;;;27.70;58.70;;;;;;5079227;28;20028;-68
2022/06/15 10:09:27;;;;;;;7.47;3.25;;;27.60;59.20;;;;;;5088877;28;20557;-69
2022/06/15 10:11:54;;;;;;;;;;;27.80;59.50;;;;;;5088232;28;20624;-69
2022/06/15 10:14:34;;;;;;;22.90;3.60;;;27.90;60.90;;;;;;5087183;28;19911;-68
2022/06/15 10:17:18;;;;;;;;;;;28.20;58.10;;;;;;5087293;28;20056;-68
2022/06/15 10:19:48;;;;;;;6.95;3.38;;;28.30;58.50;;;;;;5083132;28;19909;-68
2022/06/15 10:22:25;;;;;;;4.70;3.25;;;28.60;58.30;;;;;;5079708;28;20137;-69
2022/06/15 10:24:52;;;;;;;5.63;3.28;;;28.80;57.40;;;;;;5087994;28;20040;-68
2022/06/15 10:27:21;;;;;;;6.28;3.30;;;28.60;58.60;;;;;;5085819;28;20032;-69
2022/06/15 10:29:58;;;;;;;10.48;3.72;;;28.40;57.30;;;;;;5081705;28;20077;-66
2022/06/15 10:32:24;;;;;;;6.10;3.10;;;28.40;58.80;;;;;;5078036;28;20930;-67
2022/06/15 10:34:55;;;;;;;3.13;2.80;;;28.60;58.10;;;;;;5078058;28;20059;-67
2022/06/15 10:37:26;;;;;;;4.50;3.28;;;28.70;59.00;;;;;;5092786;28;20047;-68
2022/06/15 10:39:58;;;;;;;4.40;3.00;;;28.80;55.70;;;;;;5097702;28;20019;-68
2022/06/15 10:42:32;;;;;;;4.18;2.80;;;28.90;55.20;;;;;;5088593;28;20376;-69
2022/06/15 10:45:05;;;;;;;4.95;2.97;;;28.70;54.60;;;;;;5090430;28;20032;-67
2022/06/15 10:47:51;;;;;;;7.55;3.30;;;28.60;56.20;;;;;;5090131;28;20370;-67
2022/06/15 10:50:26;;;;;;;4.55;2.78;;;28.60;52.00;;;;;;5069312;28;20564;-68
2022/06/15 10:53:03;;;;;;;6.50;3.00;;;28.60;50.80;;;;;;5080268;28;20846;-68
2022/06/15 11:04:20;;;;;;;3.90;2.55;;;29.00;53.10;;;;;;5070757;28;20500;-66
2022/06/15 11:06:53;;;;;;;3.95;2.72;;;29.60;51.30;;;;;;5077970;28;20418;-67
2022/06/15 11:09:39;;;;;;;7.55;2.90;;;30.00;48.00;;;;;;5082215;28;20032;-67
2022/06/15 11:12:30;;;;;;;8.75;3.13;;;29.80;46.70;;;;;;5078538;28;20059;-67
2022/06/15 11:15:02;;;;;;;5.47;3.00;;;29.90;48.70;;;;;;5071739;28;20024;-69
2022/06/15 11:20:44;;;;;;;5.22;3.03;;;30.30;49.60;;;;;;5091953;28;20038;-67
2022/06/15 11:23:17;;;;;;;6.60;2.72;;;30.00;49.30;;;;;;5090138;28;20107;-67
2022/06/15 11:29:38;;;;;;;7.97;3.20;;;29.90;48.30;;;;;;5059829;28;20091;-66
2022/06/15 11:32:16;;;;;;;9.57;3.08;;;30.10;50.20;;;;;;5078751;28;20036;-67
2022/06/15 11:35:18;;;;;;;5.88;3.03;;;30.70;50.40;;;;;;5080905;28;20067;-66
2022/06/15 11:37:51;;;;;;;5.68;3.33;;;31.00;48.50;;;;;;5064622;28;20082;-68
2022/06/15 11:40:40;;;;;;;13.70;3.30;;;31.20;47.60;;;;;;5070158;28;20089;-68
2022/06/15 11:43:19;;;;;;;4.70;3.00;;;31.40;47.20;;;;;;5082803;28;20483;-68
2022/06/15 11:46:23;;;;;;;3.93;2.90;;;31.40;47.70;;;;;;5074413;28;20024;-66
2022/06/15 11:49:13;;;;;;;9.25;3.20;;;31.60;47.60;;;;;;5090029;28;20050;-68
2022/06/15 11:52:01;;;;;;;8.10;2.90;;;31.10;44.80;;;;;;5086397;28;20040;-68
2022/06/15 11:54:32;;;;;;;4.80;2.90;;;30.90;44.20;;;;;;5095415;28;20024;-68
2022/06/15 11:57:18;;;;;;;12.07;2.85;;;30.60;45.30;;;;;;5092839;28;20024;-69
2022/06/15 11:59:56;;;;;;;6.13;2.72;;;30.80;45.20;;;;;;5088543;28;20039;-68
2022/06/15 12:02:34;;;;;;;4.40;2.95;;;31.00;48.50;;;;;;5071394;28;20495;-67
2022/06/15 12:05:04;;;;;;;26.58;3.55;;;31.30;50.30;;;;;;5089739;28;20028;-66
2022/06/15 12:07:41;;;;;;;4.20;2.75;;;31.40;46.00;;;;;;5098795;28;20111;-67
2022/06/15 12:10:39;;;;;;;4.30;2.85;;;31.30;49.00;;;;;;5079993;28;20063;-68
2022/06/15 12:13:38;;;;;;;8.65;2.83;;;31.20;48.50;;;;;;5083249;28;20464;-68
2022/06/15 12:16:18;;;;;;;6.33;2.50;;;31.00;46.00;;;;;;5103938;28;20028;-66
2022/06/15 12:18:59;;;;;;;6.30;3.33;;;30.90;45.70;;;;;;5093532;28;20543;-66
2022/06/15 12:21:48;;;;;;;19.00;3.38;;;31.10;45.50;;;;;;5089953;28;20028;-67
2022/06/15 12:24:22;;;;;;;6.78;3.33;;;31.40;47.30;;;;;;5075782;28;20036;-67
2022/06/15 12:27:04;;;;;;;9.35;3.00;;;31.40;44.70;;;;;;5087141;28;20444;-67
2022/06/15 12:29:32;;;;;;;5.05;2.72;;;31.60;46.00;;;;;;5091160;28;20055;-66
2022/06/15 12:32:34;;;;;;;5.10;3.45;;;31.70;44.20;;;;;;5102405;28;20027;-66
2022/06/15 12:35:21;;;;;;;4.72;2.85;;;31.80;43.60;;;;;;5086548;28;20024;-69
2022/06/15 12:37:57;;;;;;;6.82;3.30;;;31.70;43.90;;;;;;5088286;28;20024;-68
2022/06/15 12:40:40;;;;;;;4.65;3.40;;;31.70;47.50;;;;;;5086991;28;20498;-69
2022/06/15 12:43:14;;;;;;;6.63;3.20;;;31.10;46.60;;;;;;5084995;28;20036;-70
2022/06/15 12:45:45;;;;;;;3.75;3.10;;;30.90;48.50;;;;;;5075445;28;20078;-69
2022/06/15 12:48:28;;;;;;;19.50;3.20;;;30.90;49.30;;;;;;5083319;28;20539;-67
2022/06/15 12:51:06;;;;;;;7.10;3.10;;;31.20;48.40;;;;;;5075184;28;20046;-67
2022/06/15 12:53:51;;;;;;;6.63;3.10;;;31.40;46.20;;;;;;5090141;28;20028;-69
2022/06/15 12:56:49;;;;;;;3.67;2.80;;;31.40;46.10;;;;;;5081656;28;20032;-69
2022/06/15 12:59:56;;;;;;;4.22;2.53;;;31.50;47.40;;;;;;5070539;28;20105;-69
2022/06/15 13:02:42;;;;;;;3.15;2.53;;;31.80;43.10;;;;;;5044438;28;20095;-67
2022/06/15 13:05:26;;;;;;;5.75;2.88;;;31.60;43.10;;;;;;5074174;28;20040;-69
2022/06/15 13:08:17;;;;;;;4.53;2.70;;;31.00;43.60;;;;;;5073902;28;20044;-69
2022/06/15 13:10:55;;;;;;;3.78;2.55;;;30.80;44.10;;;;;;5074687;28;20051;-69
2022/06/15 13:13:34;;;;;;;2.97;2.38;;;30.80;43.30;;;;;;5073042;28;20051;-69
2022/06/15 13:16:08;;;;;;;5.87;3.73;;;30.80;42.60;;;;;;5078066;28;20047;-69
2022/06/15 13:18:46;;;;;;;17.85;3.10;;;30.60;46.20;;;;;;5073466;28;20028;-68
2022/06/15 13:21:23;;;;;;;3.30;2.58;;;30.80;47.40;;;;;;5073602;28;20040;-69
2022/06/15 13:24:07;;;;;;;3.33;2.65;;;31.00;46.30;;;;;;5080625;28;20028;-69
2022/06/15 13:26:42;;;;;;;6.60;2.78;;;31.20;45.00;;;;;;5077071;28;20056;-68
2022/06/15 13:29:10;;;;;;;7.72;2.78;;;31.00;45.20;;;;;;5073090;28;20048;-68
2022/06/15 13:31:52;;;;;;;5.63;2.60;;;30.80;42.10;;;;;;5075361;28;20078;-68